Time;durP1;ratioP1;P1;durP2;ratioP2;P2;SDS_P1;SDS_P2;PMS_P1;PMS_P2;Temp;Humidity;BMP_temperature;BMP_pressure;BME280_temperature;BME280_humidity;BME280_pressure;Samples;Min_cycle;Max_cycle;Signal;HPM_P1;HPM_P2
2022/05/09 00:00:47;;;;;;;7.10;3.83;;;11.40;99.90;;;;;;4161591;28;20057;-90
2022/05/09 00:02:49;;;;;;;2.83;2.72;;;11.30;99.90;;;;;;4177858;28;20092;-91
2022/05/09 00:04:52;;;;;;;3.95;3.70;;;11.50;99.90;;;;;;4179084;28;20061;-89
2022/05/09 00:06:55;;;;;;;2.92;2.60;;;11.50;99.90;;;;;;4179310;28;20048;-89
2022/05/09 00:08:58;;;;;;;2.63;2.42;;;11.50;99.90;;;;;;4178859;28;20629;-89
2022/05/09 00:11:00;;;;;;;3.60;3.47;;;11.50;99.90;;;;;;4179281;28;20091;-90
2022/05/09 00:13:02;;;;;;;4.90;3.17;;;11.60;99.90;;;;;;4171225;28;20046;-91
2022/05/09 00:15:05;;;;;;;5.68;2.80;;;11.60;99.90;;;;;;4159833;28;20069;-90
2022/05/09 00:17:07;;;;;;;3.97;3.75;;;11.60;99.90;;;;;;4161294;28;20049;-90
2022/05/09 00:19:13;;;;;;;6.63;3.65;;;11.50;99.90;;;;;;4177223;28;20087;-89
2022/05/09 00:21:16;;;;;;;3.33;3.22;;;11.50;99.90;;;;;;4162507;28;20058;-90
2022/05/09 00:23:18;;;;;;;5.40;3.50;;;11.50;99.90;;;;;;4162331;28;20049;-90
2022/05/09 00:25:26;;;;;;;3.13;2.88;;;11.50;99.90;;;;;;4161266;28;20069;-90
2022/05/09 00:27:28;;;;;;;2.90;2.70;;;11.50;99.90;;;;;;4162144;28;20080;-89
2022/05/09 00:29:30;;;;;;;2.95;2.75;;;11.50;99.90;;;;;;4162304;28;20527;-90
2022/05/09 00:31:32;;;;;;;4.13;3.83;;;11.30;99.90;;;;;;4164469;28;20061;-90
2022/05/09 00:33:34;;;;;;;3.67;3.40;;;11.20;99.90;;;;;;4160717;28;20099;-90
2022/05/09 00:35:37;;;;;;;3.75;3.45;;;11.20;99.90;;;;;;4169018;28;20049;-90
2022/05/09 00:37:40;;;;;;;4.70;3.20;;;11.20;99.90;;;;;;4162052;28;20087;-90
2022/05/09 00:39:43;;;;;;;2.58;2.38;;;11.30;99.90;;;;;;4161202;28;20046;-90
2022/05/09 00:41:46;;;;;;;4.78;4.38;;;11.30;99.90;;;;;;4177186;28;20500;-90
2022/05/09 00:43:48;;;;;;;3.67;3.42;;;11.40;99.90;;;;;;4166161;28;20060;-90
2022/05/09 00:45:50;;;;;;;2.72;2.63;;;11.30;99.90;;;;;;4177352;28;20071;-86
2022/05/09 00:47:53;;;;;;;6.07;3.90;;;11.20;99.90;;;;;;4189250;28;20052;-90
2022/05/09 00:50:00;;;;;;;3.78;3.58;;;11.10;99.90;;;;;;4166399;28;20799;-90
2022/05/09 00:52:09;;;;;;;3.33;3.13;;;11.10;99.90;;;;;;4174291;28;20087;-90
2022/05/09 00:54:12;;;;;;;3.72;3.53;;;11.20;99.90;;;;;;4177242;28;20055;-90
2022/05/09 00:56:22;;;;;;;6.93;4.72;;;11.20;99.90;;;;;;4177218;28;20037;-91
2022/05/09 00:58:30;;;;;;;3.42;3.33;;;11.20;99.90;;;;;;4193751;28;20052;-89
2022/05/09 01:00:33;;;;;;;4.22;3.92;;;11.20;99.90;;;;;;4194603;28;20128;-90
2022/05/09 01:02:37;;;;;;;4.22;3.35;;;11.30;99.90;;;;;;4194840;28;20059;-89
2022/05/09 01:04:52;;;;;;;3.58;3.30;;;11.30;99.90;;;;;;4193511;28;20148;-91
2022/05/09 01:06:55;;;;;;;5.28;3.67;;;11.40;99.90;;;;;;4188642;28;20056;-91
2022/05/09 01:08:57;;;;;;;5.85;3.75;;;11.40;99.90;;;;;;4178310;28;20056;-90
2022/05/09 01:11:04;;;;;;;6.13;4.22;;;11.50;99.90;;;;;;4190642;28;20102;-90
2022/05/09 01:13:11;;;;;;;4.50;3.17;;;11.50;99.90;;;;;;4194293;28;20058;-90
2022/05/09 01:15:16;;;;;;;12.88;3.83;;;11.60;99.90;;;;;;4194599;28;20037;-90
2022/05/09 01:17:21;;;;;;;4.40;4.10;;;11.60;99.90;;;;;;4194316;28;20048;-90
2022/05/09 01:19:28;;;;;;;3.92;3.72;;;11.50;99.90;;;;;;4176889;28;20049;-89
2022/05/09 01:21:40;;;;;;;3.15;2.85;;;11.40;99.90;;;;;;4199961;28;20040;-90
2022/05/09 01:23:43;;;;;;;4.78;3.65;;;11.30;99.90;;;;;;4176508;28;20048;-89
2022/05/09 01:25:45;;;;;;;4.97;3.80;;;11.10;99.90;;;;;;4178868;28;20063;-88
2022/05/09 01:27:48;;;;;;;4.70;3.20;;;11.10;99.90;;;;;;4176867;28;20052;-91
2022/05/09 01:30:02;;;;;;;4.38;4.18;;;11.00;99.90;;;;;;4194359;28;20052;-90
2022/05/09 01:32:10;;;;;;;4.00;3.75;;;11.10;99.90;;;;;;4176537;28;20417;-86
2022/05/09 01:34:16;;;;;;;3.90;3.80;;;11.10;99.90;;;;;;4194267;28;20124;-91
2022/05/09 01:36:25;;;;;;;4.38;4.25;;;11.10;99.90;;;;;;4194431;28;20044;-90
2022/05/09 01:39:00;;;;;;;3.40;3.30;;;11.10;99.90;;;;;;4193253;28;20060;-89
2022/05/09 01:41:03;;;;;;;6.13;4.78;;;11.10;99.90;;;;;;4176475;28;20053;-90
2022/05/09 01:43:05;;;;;;;3.92;3.65;;;11.10;99.90;;;;;;4176682;28;20401;-90
2022/05/09 01:45:07;;;;;;;3.88;3.70;;;11.20;99.90;;;;;;4159829;28;20053;-90
2022/05/09 01:49:31;;;;;;;4.65;4.45;;;11.30;99.90;;;;;;4163570;28;20433;-90
2022/05/09 01:51:34;;;;;;;5.20;4.80;;;11.40;99.90;;;;;;4148329;28;20758;-91
2022/05/09 01:53:36;;;;;;;4.20;4.05;;;11.50;99.90;;;;;;4143727;28;20049;-91
2022/05/09 01:55:38;;;;;;;5.38;5.15;;;11.60;99.90;;;;;;4155569;28;20500;-89
2022/05/09 01:57:41;;;;;;;7.38;4.60;;;11.80;99.90;;;;;;4177521;28;20725;-90
2022/05/09 01:59:44;;;;;;;5.88;5.25;;;12.10;99.90;;;;;;4177659;28;20070;-89
2022/05/09 02:01:49;;;;;;;4.22;4.13;;;12.30;99.90;;;;;;4175961;28;20056;-90
2022/05/09 02:03:52;;;;;;;4.55;4.32;;;12.30;99.90;;;;;;4176721;28;20667;-90
2022/05/09 02:05:54;;;;;;;5.38;4.88;;;12.30;99.90;;;;;;4175934;28;20124;-90
2022/05/09 02:07:56;;;;;;;4.70;4.53;;;12.30;99.90;;;;;;4168176;28;20098;-89
2022/05/09 02:09:58;;;;;;;5.78;4.65;;;12.30;99.90;;;;;;4162257;28;20107;-90
2022/05/09 02:12:02;;;;;;;;;;;12.20;99.90;;;;;;4180264;28;20045;-89
2022/05/09 02:14:04;;;;;;;4.55;4.10;;;12.10;99.90;;;;;;4162820;28;19928;-90
2022/05/09 02:16:07;;;;;;;5.78;3.75;;;12.00;99.90;;;;;;4164164;28;20061;-90
2022/05/09 02:18:09;;;;;;;;;;;11.90;99.90;;;;;;4176859;28;20472;-89
2022/05/09 02:20:12;;;;;;;4.70;4.10;;;11.80;99.90;;;;;;4162877;28;19971;-90
2022/05/09 02:22:15;;;;;;;6.57;6.07;;;11.80;99.90;;;;;;4164682;28;20136;-90
2022/05/09 02:24:18;;;;;;;5.63;5.28;;;12.00;99.90;;;;;;4164172;28;20052;-90
2022/05/09 02:26:21;;;;;;;5.05;4.53;;;11.90;99.90;;;;;;4166207;28;20052;-90
2022/05/09 02:28:24;;;;;;;4.70;4.60;;;12.00;99.90;;;;;;4180580;28;20507;-89
2022/05/09 02:30:26;;;;;;;4.07;3.80;;;11.90;99.90;;;;;;4180624;28;20045;-89
2022/05/09 02:32:29;;;;;;;;;;;11.80;99.90;;;;;;4179715;28;20058;-89
2022/05/09 02:34:32;;;;;;;5.78;4.25;;;11.70;99.90;;;;;;4162126;28;19927;-91
2022/05/09 02:36:35;;;;;;;4.80;4.45;;;11.70;99.90;;;;;;4170051;28;20033;-90
2022/05/09 02:38:38;;;;;;;5.60;5.28;;;11.70;99.90;;;;;;4179370;28;20057;-90
2022/05/09 02:40:40;;;;;;;6.30;5.82;;;11.70;99.90;;;;;;4179389;28;20067;-90
2022/05/09 02:42:43;;;;;;;6.75;6.35;;;11.80;99.90;;;;;;4179094;28;20475;-89
2022/05/09 02:44:45;;;;;;;;;;;11.90;99.90;;;;;;4192727;28;20063;-91
2022/05/09 02:46:47;;;;;;;7.07;6.60;;;12.10;99.90;;;;;;4195577;28;20470;-91
2022/05/09 02:48:50;;;;;;;6.60;6.38;;;12.20;99.90;;;;;;4180026;28;20140;-90
2022/05/09 02:50:52;;;;;;;6.38;5.82;;;12.30;99.90;;;;;;4193786;28;20546;-91
2022/05/09 02:52:54;;;;;;;10.38;5.55;;;12.30;99.90;;;;;;4168078;28;20045;-90
2022/05/09 02:54:57;;;;;;;6.20;5.90;;;12.30;99.90;;;;;;4180387;28;20053;-91
2022/05/09 02:57:01;;;;;;;;;;;12.30;99.90;;;;;;4197335;28;20052;-91
2022/05/09 02:59:03;;;;;;;7.65;6.80;;;12.30;99.90;;;;;;4187711;28;19925;-87
2022/05/09 03:01:05;;;;;;;6.93;6.53;;;12.20;99.90;;;;;;4179282;28;20059;-90
2022/05/09 03:05:35;;;;;;;7.50;7.07;;;12.40;99.90;;;;;;4196715;28;20127;-90
2022/05/09 03:07:37;;;;;;;6.72;6.28;;;12.30;99.90;;;;;;4173702;28;20048;-90
2022/05/09 03:09:47;;;;;;;6.88;6.57;;;12.30;99.90;;;;;;4180075;28;20404;-91
2022/05/09 03:11:49;;;;;;;6.55;6.10;;;12.20;99.90;;;;;;4178974;28;20055;-91
2022/05/09 03:13:51;;;;;;;6.53;6.10;;;12.10;99.90;;;;;;4196427;28;20051;-90
2022/05/09 03:15:53;;;;;;;6.72;6.20;;;12.20;99.90;;;;;;4180396;28;20045;-91
2022/05/09 03:17:56;;;;;;;7.45;7.03;;;12.20;99.90;;;;;;4187957;28;20079;-90
2022/05/09 03:19:59;;;;;;;6.53;6.22;;;12.40;99.90;;;;;;4196911;28;20045;-89
2022/05/09 03:22:02;;;;;;;7.65;6.95;;;12.50;99.90;;;;;;4178878;28;20053;-91
2022/05/09 03:24:04;;;;;;;;;;;12.50;99.90;;;;;;4180300;28;20533;-91
2022/05/09 03:26:06;;;;;;;6.97;6.53;;;12.50;99.90;;;;;;4197191;28;19931;-89
2022/05/09 03:28:18;;;;;;;6.15;5.68;;;12.20;99.90;;;;;;4184736;28;20314;-90
2022/05/09 03:30:22;;;;;;;7.90;7.20;;;12.20;99.90;;;;;;4185387;28;20078;-91
2022/05/09 03:32:25;;;;;;;6.78;6.28;;;12.20;99.90;;;;;;4178721;28;20059;-89
2022/05/09 03:34:29;;;;;;;6.88;6.32;;;12.00;99.90;;;;;;4179287;28;20056;-90
2022/05/09 03:36:32;;;;;;;6.80;6.30;;;11.90;99.90;;;;;;4196680;28;20051;-90
2022/05/09 03:38:34;;;;;;;5.75;5.55;;;11.80;99.90;;;;;;4196530;28;20403;-89
2022/05/09 03:40:36;;;;;;;7.50;7.05;;;11.90;99.90;;;;;;4178572;28;20056;-91
2022/05/09 03:42:39;;;;;;;6.30;5.97;;;11.90;99.90;;;;;;4178357;28;20803;-89
2022/05/09 03:44:41;;;;;;;6.20;5.80;;;12.00;99.90;;;;;;4150502;28;20053;-89
2022/05/09 03:46:45;;;;;;;6.60;6.30;;;12.00;99.90;;;;;;4152893;28;20057;-90
2022/05/09 03:48:47;;;;;;;6.13;5.85;;;12.10;99.90;;;;;;4178584;28;20052;-90
2022/05/09 03:50:49;;;;;;;6.72;6.30;;;12.10;99.90;;;;;;4179325;28;20052;-90
2022/05/09 03:52:53;;;;;;;7.15;6.60;;;12.20;99.90;;;;;;4179280;28;20049;-92
2022/05/09 03:54:57;;;;;;;7.43;6.93;;;12.20;99.90;;;;;;4179533;28;20115;-90
2022/05/09 03:56:59;;;;;;;6.35;6.05;;;12.10;99.90;;;;;;4148630;28;20465;-91
2022/05/09 03:59:01;;;;;;;8.07;7.28;;;12.10;99.90;;;;;;4167878;28;20100;-89
2022/05/09 04:01:03;;;;;;;6.32;5.97;;;12.00;99.90;;;;;;4178596;28;20067;-89
2022/05/09 04:03:06;;;;;;;7.97;6.47;;;11.90;99.90;;;;;;4177923;28;20049;-91
2022/05/09 04:05:14;;;;;;;6.95;6.63;;;11.70;99.90;;;;;;4179294;28;20083;-89
2022/05/09 04:07:19;;;;;;;7.05;6.72;;;11.70;99.90;;;;;;4161616;28;20054;-90
2022/05/09 04:09:22;;;;;;;7.50;6.70;;;11.70;99.90;;;;;;4161440;28;20063;-91
2022/05/09 04:11:24;;;;;;;5.88;5.68;;;11.70;99.90;;;;;;4166002;28;20071;-91
2022/05/09 04:13:27;;;;;;;7.65;7.30;;;11.60;99.90;;;;;;4162793;28;20116;-89
2022/05/09 04:17:52;;;;;;;7.32;6.63;;;11.50;99.90;;;;;;4168477;28;20045;-90
2022/05/09 04:19:54;;;;;;;8.05;7.55;;;11.40;99.90;;;;;;4162432;28;20050;-90
2022/05/09 04:21:57;;;;;;;8.35;6.82;;;11.40;99.90;;;;;;4169626;28;20072;-90
2022/05/09 04:24:00;;;;;;;7.45;7.05;;;11.50;99.90;;;;;;4177929;28;20059;-90
2022/05/09 04:26:02;;;;;;;7.45;6.78;;;11.80;99.90;;;;;;4179160;28;20064;-89
2022/05/09 04:28:07;;;;;;;6.97;6.65;;;11.80;99.90;;;;;;4173414;28;20128;-91
2022/05/09 04:30:11;;;;;;;7.60;7.10;;;11.80;99.90;;;;;;4178029;28;20052;-92
2022/05/09 04:32:14;;;;;;;8.13;7.60;;;11.80;99.90;;;;;;4177204;28;20052;-91
2022/05/09 04:34:17;;;;;;;7.05;6.28;;;11.80;99.90;;;;;;4179336;28;20051;-91
2022/05/09 04:36:21;;;;;;;7.15;6.85;;;11.80;99.90;;;;;;4161667;28;20060;-90
2022/05/09 04:38:24;;;;;;;7.47;6.70;;;11.70;99.90;;;;;;4161413;28;20195;-90
2022/05/09 04:40:31;;;;;;;7.57;7.05;;;11.60;99.90;;;;;;4179000;28;20485;-85
2022/05/09 04:42:33;;;;;;;8.07;6.88;;;11.50;99.90;;;;;;4178882;28;20562;-90
2022/05/09 04:44:35;;;;;;;7.75;7.45;;;11.50;99.90;;;;;;4161544;28;20083;-90
2022/05/09 04:46:37;;;;;;;8.10;7.32;;;11.50;99.90;;;;;;4180095;28;20048;-91
2022/05/09 04:48:42;;;;;;;8.50;7.75;;;11.40;99.90;;;;;;4194664;28;20052;-91
2022/05/09 04:50:44;;;;;;;9.13;8.60;;;11.40;99.90;;;;;;4176238;28;20055;-90
2022/05/09 04:52:47;;;;;;;7.88;7.45;;;11.40;99.90;;;;;;4177406;28;20045;-89
2022/05/09 04:54:50;;;;;;;;;;;11.50;99.90;;;;;;4164020;28;20355;-90
2022/05/09 04:56:53;;;;;;;8.32;7.68;;;11.70;99.90;;;;;;4177493;28;19924;-88
2022/05/09 04:58:56;;;;;;;8.30;7.68;;;11.90;99.90;;;;;;4194731;28;20055;-90
2022/05/09 05:00:59;;;;;;;9.45;8.52;;;11.90;99.90;;;;;;4177205;28;20072;-90
2022/05/09 05:03:01;;;;;;;7.32;6.75;;;12.10;99.90;;;;;;4193118;28;20045;-91
2022/05/09 05:05:07;;;;;;;10.75;7.70;;;12.10;99.90;;;;;;4194788;28;20037;-90
2022/05/09 05:07:09;;;;;;;8.88;8.43;;;12.10;99.90;;;;;;4194456;28;20558;-88
2022/05/09 05:09:11;;;;;;;8.75;8.02;;;12.20;99.90;;;;;;4191228;28;20040;-90
2022/05/09 05:11:13;;;;;;;10.50;7.13;;;12.10;99.90;;;;;;4177087;28;20041;-90
2022/05/09 05:13:17;;;;;;;8.80;8.32;;;12.10;99.90;;;;;;4171166;28;20045;-90
2022/05/09 05:15:19;;;;;;;8.25;7.53;;;12.20;99.90;;;;;;4193491;28;20052;-91
2022/05/09 05:17:21;;;;;;;7.45;7.22;;;12.10;99.90;;;;;;4179881;28;20055;-89
2022/05/09 05:19:27;;;;;;;8.65;8.25;;;12.20;99.90;;;;;;4177327;28;20052;-90
2022/05/09 05:21:31;;;;;;;7.80;7.40;;;12.20;99.90;;;;;;4178076;28;20073;-90
2022/05/09 05:23:33;;;;;;;8.95;8.55;;;12.30;99.90;;;;;;4195112;28;20040;-90
2022/05/09 05:25:35;;;;;;;8.15;7.65;;;12.30;99.90;;;;;;4194365;28;20049;-90
2022/05/09 05:27:39;;;;;;;8.20;7.88;;;12.40;99.90;;;;;;4193970;28;20059;-90
2022/05/09 05:29:43;;;;;;;8.60;7.80;;;12.40;99.90;;;;;;4175559;28;20052;-91
2022/05/09 05:31:46;;;;;;;7.05;6.78;;;12.40;99.90;;;;;;4183061;28;20075;-91
2022/05/09 05:33:49;;;;;;;7.80;7.20;;;12.50;99.90;;;;;;4193822;28;20083;-91
2022/05/09 05:35:52;;;;;;;9.05;8.05;;;12.50;99.90;;;;;;4177429;28;20079;-91
2022/05/09 05:37:55;;;;;;;8.95;8.27;;;12.60;99.90;;;;;;4181677;28;20039;-90
2022/05/09 05:39:58;;;;;;;8.90;8.35;;;12.60;99.90;;;;;;4177234;28;20083;-91
2022/05/09 05:42:04;;;;;;;8.70;8.05;;;12.60;99.90;;;;;;4193601;28;20051;-90
2022/05/09 05:44:11;;;;;;;8.63;7.93;;;12.70;99.90;;;;;;4182632;28;20065;-91
2022/05/09 05:46:13;;;;;;;10.02;9.43;;;12.80;99.90;;;;;;4178047;28;20049;-91
2022/05/09 05:48:15;;;;;;;8.32;7.78;;;12.90;99.90;;;;;;4167931;28;20111;-91
2022/05/09 05:50:19;;;;;;;7.93;7.32;;;13.00;99.90;;;;;;4168567;28;20413;-90
2022/05/09 05:52:22;;;;;;;9.98;7.85;;;13.10;99.90;;;;;;4173643;28;20048;-90
2022/05/09 05:54:28;;;;;;;9.20;8.32;;;13.10;99.90;;;;;;4160295;28;20100;-90
2022/05/09 05:56:30;;;;;;;8.35;8.05;;;13.30;99.90;;;;;;4144256;28;20516;-89
2022/05/09 05:58:32;;;;;;;8.38;7.78;;;13.30;99.90;;;;;;4176222;28;20048;-90
2022/05/09 06:00:34;;;;;;;7.95;7.28;;;13.30;99.90;;;;;;4160686;28;20052;-90
2022/05/09 06:02:39;;;;;;;10.43;8.18;;;13.30;99.90;;;;;;4160599;28;20507;-89
2022/05/09 06:04:42;;;;;;;8.57;7.75;;;13.40;99.90;;;;;;4175726;28;20052;-90
2022/05/09 06:06:44;;;;;;;8.68;8.05;;;13.50;99.90;;;;;;4175786;28;20132;-90
2022/05/09 06:08:48;;;;;;;8.52;8.05;;;13.70;99.90;;;;;;4161003;28;20056;-90
2022/05/09 06:10:50;;;;;;;8.90;8.20;;;13.70;99.90;;;;;;4159484;28;20053;-90
2022/05/09 06:12:53;;;;;;;7.65;6.85;;;13.80;99.90;;;;;;4161679;28;20538;-90
2022/05/09 06:17:16;;;;;;;9.00;8.02;;;14.10;99.90;;;;;;4161171;28;19921;-90
2022/05/09 06:19:21;;;;;;;9.02;8.20;;;14.10;99.90;;;;;;4161371;28;20124;-90
2022/05/09 06:21:23;;;;;;;7.75;7.07;;;14.10;99.90;;;;;;4143529;28;20038;-89
2022/05/09 06:23:32;;;;;;;8.32;7.75;;;14.10;99.90;;;;;;4161426;28;20064;-90
2022/05/09 06:25:35;;;;;;;8.52;7.72;;;14.20;99.90;;;;;;4160096;28;20077;-90
2022/05/09 06:27:38;;;;;;;10.00;7.97;;;14.60;99.90;;;;;;4143947;28;20086;-90
2022/05/09 06:29:41;;;;;;;7.40;6.72;;;14.70;99.90;;;;;;4143682;28;20046;-90
2022/05/09 06:31:53;;;;;;;6.32;5.85;;;14.70;99.90;;;;;;4161325;28;20054;-89
2022/05/09 06:33:56;;;;;;;;;;;14.70;99.90;;;;;;4144226;28;20120;-90
2022/05/09 06:36:03;;;;;;;6.72;6.22;;;14.80;99.90;;;;;;4161492;28;19991;-90
2022/05/09 06:38:06;;;;;;;;;;;14.80;99.90;;;;;;4161679;28;20049;-90
2022/05/09 06:40:09;;;;;;;;;;;15.00;99.90;;;;;;4144141;28;19922;-90
2022/05/09 06:42:11;;;;;;;5.32;5.03;;;15.00;99.90;;;;;;4143638;28;19975;-89
2022/05/09 06:44:13;;;;;;;6.25;6.03;;;15.10;99.90;;;;;;4180762;28;20056;-90
2022/05/09 06:46:16;;;;;;;6.97;6.00;;;15.30;99.90;;;;;;4193283;28;20048;-90
2022/05/09 06:48:18;;;;;;;6.40;5.93;;;15.40;99.90;;;;;;4181699;28;20099;-90
2022/05/09 06:50:23;;;;;;;6.10;5.72;;;15.50;99.90;;;;;;4169144;28;20480;-90
2022/05/09 06:52:25;;;;;;;7.40;6.95;;;15.50;99.90;;;;;;4193240;28;20083;-89
2022/05/09 06:54:27;;;;;;;5.88;5.45;;;15.50;99.90;;;;;;4176458;28;20469;-90
2022/05/09 06:56:30;;;;;;;7.38;6.85;;;15.60;99.90;;;;;;4196090;28;20044;-89
2022/05/09 06:58:32;;;;;;;5.70;5.38;;;15.80;99.90;;;;;;4196074;28;20075;-90
2022/05/09 07:00:35;;;;;;;7.43;6.78;;;15.80;99.90;;;;;;4196897;28;20051;-91
2022/05/09 07:02:38;;;;;;;5.13;4.65;;;15.80;99.90;;;;;;4179481;28;20040;-90
2022/05/09 07:04:41;;;;;;;6.60;6.00;;;15.90;99.90;;;;;;4197064;28;20596;-90
2022/05/09 07:06:43;;;;;;;5.22;5.03;;;16.10;99.90;;;;;;4195668;28;20435;-91
2022/05/09 07:08:46;;;;;;;4.93;4.63;;;16.20;99.90;;;;;;4181106;28;20108;-92
2022/05/09 07:10:48;;;;;;;4.63;4.22;;;16.30;99.90;;;;;;4174813;28;20413;-92
2022/05/09 07:13:11;;;;;;;6.00;5.40;;;16.40;99.90;;;;;;4179424;28;20163;-91
2022/05/09 07:15:17;;;;;;;4.65;4.32;;;16.50;99.90;;;;;;4179534;28;20849;-92
2022/05/09 07:17:19;;;;;;;8.63;4.15;;;16.50;99.90;;;;;;4193034;28;20051;-91
2022/05/09 07:19:21;;;;;;;4.88;4.47;;;16.50;99.90;;;;;;4197004;28;20090;-92
2022/05/09 07:21:25;;;;;;;4.63;4.47;;;16.50;99.90;;;;;;4197229;28;20067;-92
2022/05/09 07:23:27;;;;;;;4.80;4.45;;;16.50;99.90;;;;;;4195929;28;20040;-92
2022/05/09 07:25:29;;;;;;;4.22;3.92;;;16.60;99.90;;;;;;4178907;28;20052;-92
2022/05/09 07:27:32;;;;;;;4.47;4.10;;;16.70;99.90;;;;;;4162974;28;20049;-92
2022/05/09 07:29:34;;;;;;;4.25;4.03;;;16.70;99.90;;;;;;4178913;28;20635;-91
2022/05/09 07:31:38;;;;;;;2.88;2.78;;;16.80;99.90;;;;;;4180283;28;20048;-91
2022/05/09 07:33:42;;;;;;;3.80;3.17;;;16.80;99.90;;;;;;4178948;28;20100;-91
2022/05/09 07:36:07;;;;;;;3.53;3.22;;;17.10;99.90;;;;;;4162654;28;20042;-91
2022/05/09 07:38:11;;;;;;;2.50;2.42;;;17.60;99.90;;;;;;4161839;28;20053;-92
2022/05/09 07:40:16;;;;;;;2.53;2.38;;;17.70;99.90;;;;;;4145459;28;20054;-92
2022/05/09 07:42:18;;;;;;;3.78;3.53;;;17.90;99.90;;;;;;4153667;28;20440;-92
2022/05/09 07:44:20;;;;;;;10.50;4.45;;;18.10;99.90;;;;;;4178426;28;20478;-91
2022/05/09 07:46:23;;;;;;;7.07;3.85;;;18.20;99.90;;;;;;4177351;28;20053;-91
2022/05/09 07:48:47;;;;;;;4.00;3.78;;;18.30;99.90;;;;;;4174669;28;20194;-92
2022/05/09 07:50:50;;;;;;;3.45;3.25;;;18.50;99.90;;;;;;4187388;28;20056;-90
2022/05/09 07:52:53;;;;;;;2.55;2.38;;;18.70;99.90;;;;;;4177953;28;20056;-93
2022/05/09 07:54:55;;;;;;;2.97;2.78;;;18.70;99.90;;;;;;4177645;28;20049;-92
2022/05/09 07:56:57;;;;;;;2.78;2.65;;;18.90;99.90;;;;;;4177754;28;20053;-91
2022/05/09 07:58:59;;;;;;;3.05;2.95;;;19.30;99.90;;;;;;4161299;28;20049;-91
2022/05/09 08:01:02;;;;;;;2.05;1.95;;;19.40;99.90;;;;;;4177460;28;20451;-90
2022/05/09 08:03:06;;;;;;;2.60;2.50;;;19.20;99.90;;;;;;4177200;28;20151;-91
2022/05/09 08:05:34;;;;;;;3.47;3.22;;;19.00;99.90;;;;;;4177740;28;20056;-91
2022/05/09 08:07:38;;;;;;;3.60;2.85;;;18.90;99.90;;;;;;4111341;28;20055;-91
2022/05/09 08:09:41;;;;;;;4.13;2.58;;;19.10;99.90;;;;;;4112314;28;20062;-91
2022/05/09 08:11:44;;;;;;;2.70;2.50;;;19.50;99.90;;;;;;4112216;28;20058;-92
2022/05/09 08:13:48;;;;;;;2.95;2.85;;;19.40;99.90;;;;;;4112376;28;20058;-91
2022/05/09 08:15:52;;;;;;;3.97;2.63;;;19.40;99.90;;;;;;4112094;28;20098;-91
2022/05/09 08:17:54;;;;;;;2.03;1.92;;;19.50;99.90;;;;;;4095897;28;20086;-91
2022/05/09 08:19:57;;;;;;;;;;;19.90;99.90;;;;;;4096943;29;20047;-91
2022/05/09 08:22:01;;;;;;;1.63;1.40;;;20.20;99.90;;;;;;4112355;28;19929;-91
2022/05/09 08:24:05;;;;;;;1.70;1.60;;;19.90;99.90;;;;;;4098573;28;20302;-90
2022/05/09 08:26:08;;;;;;;2.00;1.90;;;19.80;99.90;;;;;;4112722;28;20540;-91
2022/05/09 08:28:10;;;;;;;5.75;1.80;;;19.70;99.90;;;;;;4098072;28;20483;-90
2022/05/09 08:30:12;;;;;;;;;;;19.50;99.90;;;;;;4114826;28;20047;-91
2022/05/09 08:32:17;;;;;;;1.75;1.63;;;19.70;99.90;;;;;;4113718;28;20397;-92
2022/05/09 08:34:21;;;;;;;1.88;1.33;;;19.90;99.90;;;;;;4097993;28;20039;-90
2022/05/09 08:38:45;;;;;;;1.98;1.88;;;20.00;99.90;;;;;;4113135;28;20085;-91
2022/05/09 08:41:08;;;;;;;1.92;1.83;;;20.00;99.90;;;;;;4112849;28;20043;-92
2022/05/09 08:43:40;;;;;;;2.30;1.42;;;20.10;99.90;;;;;;4112912;28;20039;-92
2022/05/09 08:45:48;;;;;;;1.35;1.20;;;20.40;99.90;;;;;;4161760;28;20140;-92
2022/05/09 08:48:06;;;;;;;7.25;1.65;;;20.80;99.90;;;;;;4177680;28;20227;-92
2022/05/09 08:50:31;;;;;;;5.45;1.48;;;20.80;99.90;;;;;;4178001;28;20072;-92
2022/05/09 08:52:45;;;;;;;2.63;1.00;;;21.20;99.90;;;;;;4179280;28;20489;-92
2022/05/09 08:54:49;;;;;;;1.33;1.00;;;21.30;99.90;;;;;;4161612;28;20064;-91
2022/05/09 08:57:01;;;;;;;3.10;1.20;;;20.90;99.90;;;;;;4178646;28;20060;-91
2022/05/09 08:59:13;;;;;;;1.42;1.33;;;21.00;99.90;;;;;;4161535;28;20077;-92
2022/05/09 09:01:24;;;;;;;4.85;1.20;;;21.30;99.90;;;;;;4178094;28;20050;-91
2022/05/09 09:03:34;;;;;;;7.43;1.40;;;21.50;99.90;;;;;;4148834;28;20049;-91
2022/05/09 09:05:41;;;;;;;2.75;1.38;;;21.70;99.90;;;;;;4179218;28;20088;-91
2022/05/09 09:08:02;;;;;;;2.08;1.50;;;21.50;99.90;;;;;;4160851;28;20201;-91
2022/05/09 09:10:24;;;;;;;2.45;1.55;;;21.30;99.90;;;;;;4161270;28;20057;-91
2022/05/09 09:12:30;;;;;;;5.33;1.10;;;21.80;99.90;;;;;;4178833;28;20060;-92
2022/05/09 09:15:02;;;;;;;1.00;1.00;;;21.90;99.90;;;;;;4166529;28;20048;-91
2022/05/09 09:17:24;;;;;;;;;;;22.20;99.90;;;;;;4161808;28;20056;-92
2022/05/09 09:19:40;;;;;;;3.70;1.52;;;22.20;99.90;;;;;;4161227;28;20400;-91
2022/05/09 09:22:03;;;;;;;4.53;1.55;;;22.00;99.90;;;;;;4178684;28;20111;-91
2022/05/09 09:24:23;;;;;;;1.67;1.17;;;21.90;99.90;;;;;;4177492;28;20052;-91
2022/05/09 09:27:00;;;;;;;2.85;1.85;;;21.80;99.90;;;;;;4161728;28;20096;-92
2022/05/09 09:29:09;;;;;;;2.13;1.10;;;21.70;99.90;;;;;;4160815;28;20048;-91
2022/05/09 09:31:15;;;;;;;3.22;1.20;;;21.50;99.90;;;;;;4163450;28;20111;-91
2022/05/09 09:33:19;;;;;;;2.88;1.10;;;21.40;99.90;;;;;;4158810;28;20063;-91
2022/05/09 09:35:33;;;;;;;1.88;1.23;;;21.90;99.90;;;;;;4145865;28;20054;-92
2022/05/09 09:38:17;;;;;;;1.10;0.90;;;21.60;99.80;;;;;;4162073;28;20045;-91
2022/05/09 09:40:19;;;;;;;2.08;1.20;;;21.30;99.90;;;;;;4142753;28;20133;-91
2022/05/09 09:42:21;;;;;;;1.60;1.17;;;20.70;99.90;;;;;;4141843;28;20050;-91
2022/05/09 09:44:26;;;;;;;1.88;1.00;;;20.50;99.90;;;;;;4158206;28;20172;-91
2022/05/09 09:46:29;;;;;;;1.60;1.00;;;20.90;99.90;;;;;;4142975;28;20042;-92
2022/05/09 09:48:31;;;;;;;2.85;1.10;;;21.00;99.90;;;;;;4143242;28;20038;-91
2022/05/09 09:51:06;;;;;;;7.30;1.10;;;21.10;99.90;;;;;;4158135;28;20053;-92
2022/05/09 09:53:09;;;;;;;4.25;1.10;;;21.10;99.90;;;;;;4165985;28;20073;-92
2022/05/09 09:55:33;;;;;;;1.23;1.00;;;21.10;99.90;;;;;;4159388;28;20576;-90
2022/05/09 09:57:38;;;;;;;2.55;1.00;;;21.00;99.90;;;;;;4151383;28;20244;-91
2022/05/09 09:59:40;;;;;;;1.55;0.93;;;20.90;99.90;;;;;;4140229;28;20060;-91
2022/05/09 10:01:43;;;;;;;1.33;1.10;;;20.90;99.90;;;;;;4136261;28;20557;-90
2022/05/09 10:04:02;;;;;;;2.00;1.15;;;21.00;99.90;;;;;;4158660;28;20053;-92
2022/05/09 10:06:17;;;;;;;3.95;1.42;;;21.10;99.90;;;;;;4154334;28;20069;-91
2022/05/09 10:08:41;;;;;;;4.00;0.93;;;21.30;99.90;;;;;;4170554;28;20045;-92
2022/05/09 10:11:03;;;;;;;4.63;1.00;;;21.50;99.90;;;;;;4155700;28;20693;-91
2022/05/09 10:13:18;;;;;;;3.65;1.00;;;21.70;99.90;;;;;;4156354;28;20057;-92
2022/05/09 10:15:35;;;;;;;1.02;1.00;;;21.50;99.90;;;;;;4154829;28;20033;-90
2022/05/09 10:17:38;;;;;;;2.20;1.00;;;21.60;99.90;;;;;;4163805;28;20045;-92
2022/05/09 10:19:41;;;;;;;1.77;1.02;;;21.20;99.90;;;;;;4190591;28;20072;-90
2022/05/09 10:26:31;;;;;;;3.53;1.00;;;22.10;99.90;;;;;;4178301;28;20059;-91
2022/05/09 10:28:37;;;;;;;2.38;1.00;;;22.30;99.90;;;;;;4203284;28;20048;-92
2022/05/09 10:30:42;;;;;;;1.25;0.90;;;22.50;99.10;;;;;;4195421;28;20056;-91
2022/05/09 10:32:55;;;;;;;2.13;0.90;;;22.70;99.90;;;;;;4211417;28;20185;-92
2022/05/09 10:35:08;;;;;;;1.40;1.00;;;22.20;98.60;;;;;;4201009;28;20036;-91
2022/05/09 10:37:38;;;;;;;3.90;1.17;;;22.50;98.50;;;;;;4182763;28;20637;-91
2022/05/09 10:39:45;;;;;;;1.75;1.25;;;22.30;98.60;;;;;;4183443;28;20033;-91
2022/05/09 10:42:01;;;;;;;2.35;0.95;;;22.40;98.10;;;;;;4197792;28;20110;-91
2022/05/09 10:44:28;;;;;;;2.60;0.90;;;22.80;98.90;;;;;;4182208;28;20536;-90
2022/05/09 10:46:50;;;;;;;9.52;1.20;;;22.50;97.80;;;;;;4192568;28;20098;-91
2022/05/09 10:49:09;;;;;;;1.23;0.90;;;22.80;98.50;;;;;;4196540;28;20057;-91
2022/05/09 10:51:28;;;;;;;2.72;0.80;;;22.90;97.20;;;;;;4179502;28;20053;-92
2022/05/09 10:54:01;;;;;;;3.50;1.00;;;22.80;97.60;;;;;;4190272;28;20045;-91
2022/05/09 10:56:25;;;;;;;5.53;1.00;;;22.30;97.20;;;;;;4196237;28;20059;-91
2022/05/09 10:58:36;;;;;;;1.90;1.17;;;21.90;98.00;;;;;;4179806;28;20048;-92
2022/05/09 11:00:51;;;;;;;3.50;0.95;;;22.20;98.60;;;;;;4178700;28;20053;-91
2022/05/09 11:03:14;;;;;;;3.45;1.00;;;22.80;98.70;;;;;;4179144;28;20453;-92
2022/05/09 11:05:16;;;;;;;4.68;1.15;;;22.90;99.90;;;;;;4162883;28;20068;-92
2022/05/09 11:07:27;;;;;;;;;;;23.10;97.90;;;;;;4189554;28;20051;-92
2022/05/09 11:09:41;;;;;;;1.42;0.80;;;23.40;98.20;;;;;;4184667;28;19925;-90
2022/05/09 11:12:13;;;;;;;4.60;1.23;;;23.30;96.90;;;;;;4187235;28;20044;-92
2022/05/09 11:14:45;;;;;;;2.05;0.90;;;22.90;97.00;;;;;;4176277;28;20053;-91
2022/05/09 11:17:14;;;;;;;1.77;1.30;;;22.90;97.80;;;;;;4194013;28;20044;-91